createdAt,value
2018-02-22T00:00:39.661Z,67.15
2018-02-22T00:03:07.225Z,53.85
2018-02-22T00:05:34.732Z,52.35
2018-02-22T00:08:02.247Z,61.50
2018-02-22T00:10:29.769Z,55.88
2018-02-22T00:12:58.046Z,63.72
2018-02-22T00:15:25.594Z,53.35
2018-02-22T00:17:53.889Z,56.50
2018-02-22T00:20:21.405Z,51.60
2018-02-22T00:22:48.940Z,52.88
2018-02-22T00:25:16.463Z,64.85
2018-02-22T00:27:44.747Z,58.15
2018-02-22T00:30:12.292Z,69.00
2018-02-22T00:32:40.580Z,62.70
2018-02-22T00:35:08.112Z,61.63
2018-02-22T00:37:36.378Z,60.03
2018-02-22T00:40:03.917Z,60.08
2018-02-22T00:42:31.427Z,65.20
2018-02-22T00:44:58.975Z,67.80
2018-02-22T00:47:27.266Z,67.37
2018-02-22T00:49:54.799Z,62.22
2018-02-22T00:52:23.097Z,62.20
2018-02-22T00:54:50.624Z,63.38
2018-02-22T00:57:18.139Z,58.53
2018-02-22T00:59:45.678Z,58.35
2018-02-22T01:02:13.194Z,60.70
2018-02-22T01:04:40.736Z,57.83
2018-02-22T01:07:08.245Z,59.97
2018-02-22T01:09:35.765Z,64.07
2018-02-22T01:12:03.281Z,65.65
2018-02-22T01:14:30.820Z,57.80
2018-02-22T01:16:58.328Z,59.00
2018-02-22T01:19:25.849Z,51.55
2018-02-22T01:21:53.354Z,50.80
2018-02-22T01:24:20.889Z,53.35
2018-02-22T01:26:48.405Z,56.83
2018-02-22T01:29:16.686Z,49.78
2018-02-22T01:31:44.197Z,60.25
2018-02-22T01:34:11.739Z,63.13
2018-02-22T01:36:39.238Z,48.28
2018-02-22T01:39:06.785Z,48.90
2018-02-22T01:41:34.318Z,51.47
2018-02-22T01:44:01.842Z,51.58
2018-02-22T01:46:29.351Z,56.33
2018-02-22T01:48:56.895Z,54.47
2018-02-22T01:51:24.430Z,52.22
2018-02-22T01:53:51.962Z,46.90
2018-02-22T01:56:20.237Z,56.30
2018-02-22T01:58:48.544Z,54.22
2018-02-22T02:01:16.051Z,50.22
2018-02-22T02:03:43.571Z,58.78
2018-02-22T02:06:11.095Z,54.25
2018-02-22T02:08:39.396Z,54.10
2018-02-22T02:11:06.915Z,44.10
2018-02-22T02:13:35.203Z,53.80
2018-02-22T02:16:03.480Z,55.03
2018-02-22T02:18:31.784Z,54.33
2018-02-22T02:20:59.317Z,51.15
2018-02-22T02:23:27.606Z,49.55
2018-02-22T02:25:55.133Z,55.88
2018-02-22T02:28:22.658Z,50.60
2018-02-22T02:30:50.198Z,46.70
2018-02-22T02:33:17.722Z,55.42
2018-02-22T02:35:46.017Z,47.58
2018-02-22T02:38:13.547Z,48.80
2018-02-22T02:40:41.879Z,46.05
2018-02-22T02:43:09.423Z,48.13
2018-02-22T02:45:37.053Z,49.28
2018-02-22T02:48:05.322Z,55.55
2018-02-22T02:50:33.630Z,47.75
2018-02-22T02:53:01.152Z,39.90
2018-02-22T02:55:28.677Z,50.20
2018-02-22T02:57:56.201Z,48.72
2018-02-22T03:00:23.743Z,48.40
2018-02-22T03:02:52.024Z,46.37
2018-02-22T03:05:20.331Z,54.22
2018-02-22T03:07:47.854Z,56.17
2018-02-22T03:10:16.133Z,59.78
2018-02-22T03:12:44.412Z,60.80
2018-02-22T03:15:12.720Z,49.05
2018-02-22T03:17:40.244Z,52.97
2018-02-22T03:20:08.529Z,53.92
2018-02-22T03:22:36.789Z,42.35
2018-02-22T03:25:05.094Z,53.38
2018-02-22T03:27:32.622Z,48.70
2018-02-22T03:30:00.936Z,57.45
2018-02-22T03:32:28.447Z,50.53
2018-02-22T03:34:55.976Z,57.15
2018-02-22T03:37:24.261Z,50.03
2018-02-22T03:39:52.566Z,45.92
2018-02-22T03:42:20.084Z,54.17
2018-02-22T03:44:47.610Z,43.03
2018-02-22T03:47:15.128Z,49.20
2018-02-22T03:49:42.656Z,47.20
2018-02-22T03:52:10.171Z,43.35
2018-02-22T03:54:38.461Z,48.80
2018-02-22T03:57:05.972Z,50.12
2018-02-22T03:59:33.512Z,43.05
2018-02-22T04:02:01.022Z,43.65
2018-02-22T04:04:28.582Z,53.45
2018-02-22T04:06:56.868Z,49.50
2018-02-22T04:09:24.391Z,48.13
2018-02-22T04:11:51.916Z,52.90
2018-02-22T04:14:19.520Z,49.45
2018-02-22T04:16:47.049Z,51.37
2018-02-22T04:19:14.572Z,50.80
2018-02-22T04:21:42.087Z,48.45
2018-02-22T04:24:09.614Z,41.25
2018-02-22T04:26:37.114Z,40.03
2018-02-22T04:29:05.416Z,44.85
2018-02-22T04:31:32.941Z,36.25
2018-02-22T04:34:00.467Z,49.55
2018-02-22T04:36:27.970Z,44.78
2018-02-22T04:38:56.283Z,43.97
2018-02-22T04:41:23.799Z,50.67
2018-02-22T04:43:51.333Z,43.50
2018-02-22T04:46:18.861Z,43.33
2018-02-22T04:48:46.399Z,42.60
2018-02-22T04:51:14.768Z,48.85
2018-02-22T04:53:42.316Z,50.35
2018-02-22T04:56:10.604Z,45.83
2018-02-22T04:58:38.903Z,37.25
2018-02-22T05:01:06.413Z,46.40
2018-02-22T05:03:33.951Z,38.78
2018-02-22T05:06:02.240Z,48.00
2018-02-22T05:08:29.772Z,45.28
2018-02-22T05:10:57.284Z,46.28
2018-02-22T05:13:24.810Z,43.90
2018-02-22T05:15:52.340Z,43.35
2018-02-22T05:18:19.861Z,51.83
2018-02-22T05:20:47.385Z,45.80
2018-02-22T05:23:14.920Z,47.40
2018-02-22T05:25:42.444Z,49.55
2018-02-22T05:28:10.727Z,49.17
2018-02-22T05:30:39.034Z,47.75
2018-02-22T05:33:06.534Z,45.08
2018-02-22T05:35:34.068Z,52.67
2018-02-22T05:38:01.574Z,43.58
2018-02-22T05:40:29.885Z,53.40
2018-02-22T05:42:57.407Z,52.75
2018-02-22T05:45:25.716Z,44.72
2018-02-22T05:47:53.227Z,47.62
2018-02-22T05:50:21.521Z,46.88
2018-02-22T05:52:49.789Z,50.45
2018-02-22T05:55:18.086Z,54.78
2018-02-22T05:57:45.604Z,45.25
2018-02-22T06:00:13.131Z,55.33
2018-02-22T06:02:40.652Z,49.75
2018-02-22T06:05:08.177Z,45.85
2018-02-22T06:07:35.677Z,47.35
2018-02-22T06:10:03.198Z,50.35
2018-02-22T06:12:30.711Z,47.55
2018-02-22T06:14:58.248Z,49.88
2018-02-22T06:17:26.524Z,49.63
2018-02-22T06:19:54.815Z,51.47
2018-02-22T06:22:22.369Z,54.33
2018-02-22T06:24:49.904Z,56.22
2018-02-22T06:27:18.188Z,55.08
2018-02-22T06:29:46.487Z,58.80
2018-02-22T06:32:14.007Z,61.95
2018-02-22T06:34:41.546Z,60.95
2018-02-22T06:37:09.070Z,53.20
2018-02-22T06:39:36.601Z,51.88
2018-02-22T06:42:04.889Z,52.05
2018-02-22T06:44:32.428Z,61.05
2018-02-22T06:47:00.719Z,58.38
2018-02-22T06:49:28.257Z,46.67
2018-02-22T06:51:56.535Z,55.25
2018-02-22T06:54:24.829Z,60.67
2018-02-22T06:56:52.355Z,46.08
2018-02-22T06:59:19.904Z,49.08
2018-02-22T07:01:47.414Z,51.13
2018-02-22T07:04:14.938Z,65.00
2018-02-22T07:06:42.452Z,52.38
2018-02-22T07:09:09.986Z,54.33
2018-02-22T07:11:37.486Z,57.42
2018-02-22T07:14:05.020Z,59.03
2018-02-22T07:16:32.542Z,55.10
2018-02-22T07:19:00.838Z,56.83
2018-02-22T07:21:28.346Z,61.95
2018-02-22T07:23:57.374Z,77.18
2018-02-22T07:26:25.711Z,65.05
2018-02-22T07:28:53.241Z,75.12
2018-02-22T07:31:20.768Z,59.10
2018-02-22T07:33:49.077Z,63.47
2018-02-22T07:36:16.653Z,56.63
2018-02-22T07:38:44.178Z,58.42
2018-02-22T07:41:11.704Z,58.92
2018-02-22T07:43:39.238Z,51.80
2018-02-22T07:46:06.741Z,54.15
2018-02-22T07:48:35.045Z,47.35
2018-02-22T07:51:02.572Z,51.75
2018-02-22T07:53:30.854Z,43.38
2018-02-22T07:55:59.152Z,53.55
2018-02-22T07:58:26.673Z,61.60
2018-02-22T08:00:54.966Z,57.50
2018-02-22T08:03:23.249Z,57.72
2018-02-22T08:05:50.769Z,54.22
2018-02-22T08:08:18.326Z,51.88
2018-02-22T08:10:45.849Z,52.30
2018-02-22T08:13:13.401Z,59.00
2018-02-22T08:15:40.921Z,54.08
2018-02-22T08:18:09.211Z,64.57
2018-02-22T08:20:37.511Z,58.47
2018-02-22T08:23:05.045Z,52.72
2018-02-22T08:25:33.326Z,48.53
2018-02-22T08:28:01.611Z,55.78
2018-02-22T08:30:29.147Z,58.13
2018-02-22T08:32:57.414Z,53.20
2018-02-22T08:35:24.929Z,49.80
2018-02-22T08:37:52.434Z,48.67
2018-02-22T08:40:20.751Z,43.85
2018-02-22T08:42:48.308Z,53.87
2018-02-22T08:45:15.858Z,47.97
2018-02-22T08:47:43.384Z,47.83
2018-02-22T08:50:10.906Z,51.72
2018-02-22T08:52:38.423Z,53.38
2018-02-22T08:55:05.939Z,43.40
2018-02-22T08:57:33.434Z,44.70
2018-02-22T09:00:01.734Z,52.10
2018-02-22T09:02:29.238Z,56.65
2018-02-22T09:04:56.780Z,57.67
2018-02-22T09:07:24.344Z,44.80
2018-02-22T09:09:51.863Z,47.08
2018-02-22T09:12:19.391Z,45.78
2018-02-22T09:14:47.670Z,48.50
2018-02-22T09:17:15.960Z,61.60
2018-02-22T09:19:44.260Z,49.95
2018-02-22T09:22:11.781Z,45.28
2018-02-22T09:24:40.064Z,50.65
2018-02-22T09:27:08.329Z,54.97
2018-02-22T09:29:36.629Z,52.88
2018-02-22T09:32:04.142Z,46.80
2018-02-22T09:34:31.680Z,51.00
2018-02-22T09:36:59.201Z,52.45
2018-02-22T09:39:26.720Z,42.28
2018-02-22T09:41:54.221Z,40.47
2018-02-22T09:44:22.505Z,42.65
2018-02-22T09:46:50.019Z,41.75
2018-02-22T09:49:17.553Z,40.15
2018-02-22T09:51:45.058Z,40.53
2018-02-22T09:54:13.337Z,39.33
2018-02-22T09:56:41.625Z,46.78
2018-02-22T09:59:09.145Z,40.65
2018-02-22T10:01:36.669Z,35.83
2018-02-22T10:04:04.195Z,34.13
2018-02-22T10:06:32.482Z,40.15
2018-02-22T10:09:00.029Z,32.42
2018-02-22T10:11:28.313Z,33.15
2018-02-22T10:13:55.848Z,31.60
2018-02-22T10:16:24.136Z,28.50
2018-02-22T10:18:52.422Z,32.90
2018-02-22T10:21:19.937Z,30.62
2018-02-22T10:23:47.469Z,32.30
2018-02-22T10:26:14.969Z,26.85
2018-02-22T10:28:42.488Z,26.60
2018-02-22T10:31:09.997Z,30.70
2018-02-22T10:33:38.284Z,30.92
2018-02-22T10:36:05.805Z,30.48
2018-02-22T10:38:33.325Z,26.92
2018-02-22T10:41:00.853Z,25.95
2018-02-22T10:43:29.149Z,26.65
2018-02-22T10:45:56.665Z,30.27
2018-02-22T10:48:24.190Z,36.47
2018-02-22T10:50:51.704Z,26.92
2018-02-22T10:53:20.000Z,30.60
2018-02-22T10:55:47.497Z,32.40
2018-02-22T10:58:14.998Z,33.25
2018-02-22T11:00:49.085Z,27.65
2018-02-22T11:03:16.581Z,26.37
2018-02-22T11:05:44.132Z,26.15
2018-02-22T11:08:11.647Z,29.40
2018-02-22T11:10:39.170Z,29.37
2018-02-22T11:13:06.688Z,27.95
2018-02-22T11:15:34.978Z,32.17
2018-02-22T11:18:03.245Z,26.17
2018-02-22T11:20:31.550Z,29.00
2018-02-22T11:22:59.060Z,24.58
2018-02-22T11:25:26.573Z,33.50
2018-02-22T11:27:54.108Z,30.02
2018-02-22T11:30:21.634Z,36.17
2018-02-22T11:32:49.147Z,28.23
2018-02-22T11:35:16.691Z,22.58
2018-02-22T11:37:44.196Z,32.28
2018-02-22T11:40:11.729Z,27.20
2018-02-22T11:42:39.237Z,23.95
2018-02-22T11:45:06.758Z,28.00
2018-02-22T11:47:34.316Z,24.40
2018-02-22T11:50:01.869Z,31.60
2018-02-22T11:52:29.380Z,33.15
2018-02-22T11:54:57.683Z,27.30
2018-02-22T11:57:25.209Z,32.38
2018-02-22T11:59:53.523Z,25.62
2018-02-22T12:02:21.052Z,34.10
2018-02-22T12:04:49.347Z,29.85
2018-02-22T12:07:16.889Z,29.60
2018-02-22T12:09:45.191Z,32.15
2018-02-22T12:12:12.694Z,31.17
2018-02-22T12:14:40.236Z,35.72
2018-02-22T12:17:07.754Z,26.08
2018-02-22T12:19:35.272Z,30.08
2018-02-22T12:22:02.780Z,28.02
2018-02-22T12:24:30.321Z,28.77
2018-02-22T12:26:57.982Z,25.73
2018-02-22T12:29:26.294Z,30.08
2018-02-22T12:31:53.805Z,22.90
2018-02-22T12:34:22.095Z,31.23
2018-02-22T12:36:50.365Z,22.35
2018-02-22T12:39:18.677Z,32.00
2018-02-22T12:41:46.187Z,25.65
2018-02-22T12:44:14.474Z,24.85
2018-02-22T12:46:42.761Z,34.85
2018-02-22T12:49:10.297Z,24.83
2018-02-22T12:51:38.596Z,24.60
2018-02-22T12:54:06.135Z,25.70
2018-02-22T12:56:34.407Z,28.62
2018-02-22T12:59:01.946Z,29.30
2018-02-22T13:01:29.490Z,28.12
2018-02-22T13:03:57.797Z,31.45
2018-02-22T13:06:26.092Z,29.52
2018-02-22T13:08:54.382Z,29.60
2018-02-22T13:11:21.910Z,25.20
2018-02-22T13:13:49.456Z,29.50
2018-02-22T13:16:16.972Z,30.10
2018-02-22T13:18:44.495Z,32.00
2018-02-22T13:21:12.766Z,32.70
2018-02-22T13:23:40.291Z,39.28
2018-02-22T13:26:07.815Z,30.65
2018-02-22T13:28:35.346Z,27.73
2018-02-22T13:31:03.661Z,34.20
2018-02-22T13:33:42.968Z,29.20
2018-02-22T13:36:11.246Z,30.23
2018-02-22T13:38:51.509Z,26.92
2018-02-22T13:41:19.014Z,30.65
2018-02-22T13:43:46.551Z,32.60
2018-02-22T13:46:14.062Z,30.75
2018-02-22T13:51:43.060Z,30.42
2018-02-22T13:54:10.580Z,36.65
2018-02-22T13:56:49.969Z,33.95
2018-02-22T13:59:17.477Z,35.55
2018-02-22T14:01:56.837Z,29.42
2018-02-22T14:04:24.369Z,32.78
2018-02-22T14:06:51.871Z,30.15
2018-02-22T14:09:19.386Z,37.75
2018-02-22T14:11:46.902Z,33.45
2018-02-22T14:14:15.203Z,35.63
2018-02-22T14:16:42.708Z,28.58
2018-02-22T14:19:10.246Z,31.42
2018-02-22T14:21:37.746Z,31.90
2018-02-22T14:24:05.286Z,34.85
2018-02-22T14:26:32.792Z,33.50
2018-02-22T14:29:00.315Z,34.53
2018-02-22T14:31:28.605Z,33.55
2018-02-22T14:33:56.141Z,39.08
2018-02-22T14:36:23.691Z,31.10
2018-02-22T14:38:51.303Z,31.58
2018-02-22T14:41:20.587Z,35.42
2018-02-22T14:43:48.879Z,32.63
2018-02-22T14:46:16.416Z,32.15
2018-02-22T14:48:43.930Z,33.05
2018-02-22T14:51:11.440Z,35.05
2018-02-22T14:53:39.749Z,35.50
2018-02-22T14:56:07.264Z,35.30
2018-02-22T14:58:34.787Z,35.28
2018-02-22T15:01:07.147Z,43.72
2018-02-22T15:03:34.657Z,39.63
2018-02-22T15:06:02.928Z,44.28
2018-02-22T15:08:30.464Z,46.70
2018-02-22T15:10:58.740Z,44.97
2018-02-22T15:13:26.249Z,48.10
2018-02-22T15:15:53.742Z,36.78
2018-02-22T15:18:21.262Z,43.35
2018-02-22T15:20:48.830Z,40.60
2018-02-22T15:23:17.105Z,49.65
2018-02-22T15:25:44.660Z,45.35
2018-02-22T15:28:12.936Z,46.88
2018-02-22T15:30:40.457Z,41.83
2018-02-22T15:33:07.974Z,49.80
2018-02-22T15:35:35.516Z,36.40
2018-02-22T15:38:03.014Z,40.60
2018-02-22T15:40:30.564Z,42.20
2018-02-22T15:42:58.069Z,42.20
2018-02-22T15:45:26.350Z,34.33
2018-02-22T15:47:54.644Z,42.25
2018-02-22T15:50:22.173Z,42.72
2018-02-22T15:52:49.689Z,39.92
2018-02-22T15:55:17.202Z,52.47
2018-02-22T15:57:45.484Z,48.78
2018-02-22T16:00:13.780Z,40.58
2018-02-22T16:02:41.273Z,36.50
2018-02-22T16:05:08.777Z,35.60
2018-02-22T16:07:37.064Z,39.05
2018-02-22T16:10:04.577Z,36.40
2018-02-22T16:12:32.086Z,41.35
2018-02-22T16:14:59.619Z,40.30
2018-02-22T16:17:27.114Z,40.85
2018-02-22T16:19:54.625Z,35.28
2018-02-22T16:22:22.127Z,39.83
2018-02-22T16:24:49.656Z,46.95
2018-02-22T16:27:17.928Z,39.22
2018-02-22T16:29:46.218Z,38.95
2018-02-22T16:32:14.483Z,45.05
2018-02-22T16:34:42.761Z,40.78
2018-02-22T16:37:11.028Z,40.20
2018-02-22T16:39:38.539Z,34.25
2018-02-22T16:42:06.050Z,45.67
2018-02-22T16:44:34.405Z,39.00
2018-02-22T16:47:01.913Z,38.90
2018-02-22T16:49:29.445Z,39.03
2018-02-22T16:51:57.710Z,39.88
2018-02-22T16:54:25.248Z,39.35
2018-02-22T16:56:52.756Z,33.97
2018-02-22T16:59:20.293Z,41.28
2018-02-22T17:01:48.567Z,44.22
2018-02-22T17:04:16.880Z,37.20
2018-02-22T17:06:44.385Z,44.33
2018-02-22T17:09:11.916Z,37.65
2018-02-22T17:11:39.418Z,44.50
2018-02-22T17:14:07.693Z,45.85
2018-02-22T17:16:35.961Z,43.05
2018-02-22T17:19:03.487Z,39.50
2018-02-22T17:21:30.973Z,41.70
2018-02-22T17:23:58.552Z,38.30
2018-02-22T17:26:32.394Z,38.05
2018-02-22T17:29:05.740Z,38.22
2018-02-22T17:31:38.938Z,41.53
2018-02-22T17:34:06.473Z,33.78
2018-02-22T17:36:52.839Z,38.58
2018-02-22T17:39:23.193Z,41.45
2018-02-22T17:41:50.753Z,37.78
2018-02-22T17:44:18.306Z,35.42
2018-02-22T17:46:45.816Z,32.35
2018-02-22T17:49:14.097Z,45.95
2018-02-22T17:51:41.608Z,38.50
2018-02-22T17:54:09.128Z,38.15
2018-02-22T17:56:36.633Z,37.30
2018-02-22T17:59:04.169Z,33.78
2018-02-22T18:01:31.688Z,34.22
2018-02-22T18:03:59.236Z,53.22
2018-02-22T18:06:27.507Z,58.85
2018-02-22T18:08:55.800Z,39.10
2018-02-22T18:11:23.345Z,45.47
2018-02-22T18:13:51.621Z,38.45
2018-02-22T18:16:19.900Z,34.40
2018-02-22T18:18:48.183Z,38.38
2018-02-22T18:21:16.450Z,37.70
2018-02-22T18:23:44.738Z,40.75
2018-02-22T18:26:12.238Z,37.88
2018-02-22T18:28:39.747Z,34.83
2018-02-22T18:31:08.010Z,37.38
2018-02-22T18:33:36.305Z,44.38
2018-02-22T18:36:04.561Z,36.75
2018-02-22T18:41:50.464Z,41.70
2018-02-22T18:44:23.827Z,39.42
2018-02-22T18:46:51.320Z,40.33
2018-02-22T18:49:18.875Z,35.20
2018-02-22T18:51:46.378Z,36.60
2018-02-22T18:54:13.916Z,39.42
2018-02-22T18:56:41.440Z,38.65
2018-02-22T18:59:08.959Z,38.03
2018-02-22T19:01:36.457Z,46.90
2018-02-22T19:04:03.989Z,32.35
2018-02-22T19:06:31.498Z,42.88
2018-02-22T19:08:59.796Z,47.67
2018-02-22T19:11:27.295Z,52.95
2018-02-22T19:13:54.825Z,60.00
2018-02-22T19:16:22.337Z,53.83
2018-02-22T19:18:49.842Z,48.55
2018-02-22T19:21:17.360Z,44.40
2018-02-22T19:23:44.889Z,45.08
2018-02-22T19:26:12.400Z,44.60
2018-02-22T19:28:40.702Z,54.20
2018-02-22T19:31:08.218Z,51.45
2018-02-22T19:33:35.746Z,54.95
2018-02-22T19:36:03.273Z,58.75
2018-02-22T19:38:30.809Z,51.03
2018-02-22T19:40:59.127Z,38.97
2018-02-22T19:43:26.642Z,41.45
2018-02-22T19:45:54.936Z,38.60
2018-02-22T19:48:22.523Z,45.88
2018-02-22T19:50:50.087Z,39.60
2018-02-22T19:53:17.577Z,50.63
2018-02-22T19:55:45.090Z,37.50
2018-02-22T19:58:12.593Z,44.67
2018-02-22T20:00:40.116Z,42.60
2018-02-22T20:03:07.644Z,42.75
2018-02-22T20:05:35.183Z,41.05
2018-02-22T20:08:03.477Z,45.40
2018-02-22T20:10:31.769Z,53.72
2018-02-22T20:12:59.298Z,57.83
2018-02-22T20:15:27.580Z,48.97
2018-02-22T20:17:55.920Z,52.13
2018-02-22T20:20:23.433Z,52.78
2018-02-22T20:22:50.933Z,47.55
2018-02-22T20:25:18.471Z,45.92
2018-02-22T20:27:45.984Z,42.88
2018-02-22T20:30:14.289Z,40.72
2018-02-22T20:32:41.805Z,45.78
2018-02-22T20:35:09.337Z,56.65
2018-02-22T20:37:36.852Z,45.12
2018-02-22T20:40:04.390Z,44.13
2018-02-22T20:42:31.909Z,45.10
2018-02-22T20:44:59.430Z,45.45
2018-02-22T20:47:26.930Z,48.03
2018-02-22T20:49:54.447Z,42.45
2018-02-22T20:55:24.584Z,54.95
2018-02-22T20:57:52.081Z,55.47
2018-02-22T21:00:19.612Z,43.28
2018-02-22T21:02:47.131Z,52.38
2018-02-22T21:05:14.665Z,52.35
2018-02-22T21:07:42.165Z,62.38
2018-02-22T21:10:10.487Z,54.97
2018-02-22T21:12:37.987Z,50.65
2018-02-22T21:15:05.529Z,47.35
2018-02-22T21:17:33.102Z,41.83
2018-02-22T21:20:00.672Z,45.28
2018-02-22T21:22:28.972Z,51.58
2018-02-22T21:24:56.502Z,41.75
2018-02-22T21:27:24.809Z,34.63
2018-02-22T21:29:52.334Z,41.97
2018-02-22T21:32:20.601Z,45.80
2018-02-22T21:34:48.167Z,53.38
2018-02-22T21:37:15.639Z,47.15
2018-02-22T21:39:43.921Z,47.95
2018-02-22T21:42:12.204Z,49.05
2018-02-22T21:44:39.722Z,37.55
2018-02-22T21:47:07.236Z,41.45
2018-02-22T21:49:34.831Z,44.50
2018-02-22T21:52:02.352Z,39.35
2018-02-22T21:54:29.896Z,41.75
2018-02-22T21:56:58.176Z,36.85
2018-02-22T21:59:25.704Z,37.85
2018-02-22T22:01:53.229Z,37.28
2018-02-22T22:04:20.781Z,38.25
2018-02-22T22:06:48.314Z,43.40
2018-02-22T22:09:15.832Z,37.38
2018-02-22T22:11:43.363Z,46.85
2018-02-22T22:14:10.898Z,34.22
2018-02-22T22:16:38.417Z,36.17
2018-02-22T22:19:05.945Z,37.63
2018-02-22T22:21:33.451Z,35.45
2018-02-22T22:24:01.742Z,36.65
2018-02-22T22:26:29.270Z,37.75
2018-02-22T22:28:56.786Z,29.42
2018-02-22T22:31:24.285Z,33.42
2018-02-22T22:33:51.802Z,34.63
2018-02-22T22:36:19.329Z,34.38
2018-02-22T22:38:46.868Z,31.12
2018-02-22T22:41:15.320Z,35.40
2018-02-22T22:43:42.862Z,34.58
2018-02-22T22:46:10.356Z,33.92
2018-02-22T22:48:37.868Z,37.50
2018-02-22T22:51:05.368Z,36.53
2018-02-22T22:53:32.899Z,38.85
2018-02-22T22:56:00.422Z,35.65
2018-02-22T22:58:27.922Z,42.00
2018-02-22T23:00:55.443Z,35.85
2018-02-22T23:03:22.960Z,42.30
2018-02-22T23:05:50.476Z,35.83
2018-02-22T23:08:17.983Z,30.90
2018-02-22T23:10:45.503Z,35.60
2018-02-22T23:13:13.017Z,37.38
2018-02-22T23:15:41.327Z,37.75
2018-02-22T23:18:08.844Z,38.97
2018-02-22T23:20:37.149Z,38.50
2018-02-22T23:23:04.651Z,38.10
2018-02-22T23:25:32.192Z,37.22
2018-02-22T23:27:59.702Z,32.72
2018-02-22T23:30:27.993Z,34.58
2018-02-22T23:32:55.500Z,37.53
2018-02-22T23:35:23.018Z,31.65
2018-02-22T23:37:50.535Z,33.63
2018-02-22T23:40:32.951Z,34.40
2018-02-22T23:43:01.252Z,40.78
2018-02-22T23:45:28.811Z,35.28
2018-02-22T23:47:56.328Z,30.48
2018-02-22T23:50:23.869Z,33.80
2018-02-22T23:52:51.380Z,37.08
2018-02-22T23:55:18.897Z,37.42
2018-02-22T23:57:46.393Z,34.05
